createdAt,value
2022-08-08T00:02:32.858Z,62.93
2022-08-08T00:05:09.862Z,63.42
2022-08-08T00:08:03.315Z,63.69
2022-08-08T00:10:45.412Z,65.92
2022-08-08T00:14:16.679Z,68.17
2022-08-08T00:16:13.016Z,69.05
2022-08-08T00:18:50.170Z,69.16
2022-08-08T00:21:24.606Z,69.43
2022-08-08T00:23:54.368Z,68.73
2022-08-08T00:26:31.633Z,67.79
2022-08-08T00:29:03.076Z,66.81
2022-08-08T00:32:16.201Z,66.95
2022-08-08T00:34:46.934Z,66.20
2022-08-08T00:37:45.133Z,65.66
2022-08-08T00:41:10.632Z,63.54
2022-08-08T00:43:20.382Z,63.14
2022-08-08T00:45:48.043Z,61.35
2022-08-08T00:48:30.148Z,61.49
2022-08-08T00:51:18.275Z,65.38
2022-08-08T00:54:13.654Z,68.81
2022-08-08T00:57:02.262Z,71.18
2022-08-08T00:59:50.834Z,73.26
2022-08-08T01:03:15.392Z,74.04
2022-08-08T01:05:42.274Z,74.85
2022-08-08T01:08:52.464Z,74.62
2022-08-08T01:11:24.318Z,74.99
2022-08-08T01:14:16.468Z,75.10
2022-08-08T01:16:46.382Z,73.58
2022-08-08T01:19:52.412Z,73.11
2022-08-08T01:22:43.806Z,74.31
2022-08-08T01:25:40.115Z,74.22
2022-08-08T01:28:41.936Z,74.76
2022-08-08T01:32:06.631Z,74.18
2022-08-08T01:34:36.365Z,74.49
2022-08-08T01:37:51.140Z,75.18
2022-08-08T01:40:14.597Z,75.01
2022-08-08T01:42:51.878Z,74.94
2022-08-08T01:45:41.797Z,75.64
2022-08-08T01:48:31.454Z,75.13
2022-08-08T01:51:06.178Z,74.73
2022-08-08T01:55:27.111Z,73.83
2022-08-08T01:56:50.504Z,72.78
2022-08-08T01:59:38.181Z,72.97
2022-08-08T02:02:34.906Z,72.83
2022-08-08T02:05:33.873Z,73.09
2022-08-08T02:08:18.345Z,73.55
2022-08-08T02:11:05.610Z,73.31
2022-08-08T02:13:53.785Z,72.05
2022-08-08T02:16:23.754Z,72.42
2022-08-08T02:18:58.712Z,71.96
2022-08-08T02:21:49.124Z,71.61
2022-08-08T02:24:38.442Z,70.57
2022-08-08T02:27:19.022Z,70.47
2022-08-08T02:29:52.784Z,70.68
2022-08-08T02:32:34.708Z,70.06
2022-08-08T02:35:10.408Z,69.20
2022-08-08T02:38:12.728Z,69.21
2022-08-08T02:40:45.330Z,69.00
2022-08-08T02:44:36.932Z,68.74
2022-08-08T02:46:37.027Z,68.69
2022-08-08T02:49:18.717Z,68.51
2022-08-08T02:52:35.355Z,68.46
2022-08-08T02:54:52.849Z,68.69
2022-08-08T02:57:44.986Z,69.27
2022-08-08T03:00:35.802Z,69.77
2022-08-08T03:03:46.156Z,69.80
2022-08-08T03:06:24.297Z,70.61
2022-08-08T03:09:08.513Z,70.20
2022-08-08T03:12:02.835Z,69.59
2022-08-08T03:16:02.682Z,69.49
2022-08-08T03:17:40.637Z,69.99
2022-08-08T03:20:13.603Z,68.61
2022-08-08T03:22:46.327Z,68.78
2022-08-08T03:25:18.557Z,68.46
2022-08-08T03:27:56.791Z,68.62
2022-08-08T03:30:25.526Z,68.50
2022-08-08T03:33:56.724Z,68.75
2022-08-08T03:36:01.910Z,69.37
2022-08-08T03:38:57.288Z,67.83
2022-08-08T03:42:13.059Z,67.23
2022-08-08T03:44:07.122Z,67.40
2022-08-08T03:46:49.206Z,68.11
2022-08-08T03:49:58.520Z,68.06
2022-08-08T03:52:13.276Z,66.98
2022-08-08T03:55:10.104Z,66.82
2022-08-08T03:58:09.524Z,67.32
2022-08-08T04:00:31.829Z,67.28
2022-08-08T04:03:11.498Z,66.22
2022-08-08T04:05:47.955Z,66.17
2022-08-08T04:08:32.981Z,64.95
2022-08-08T04:11:10.861Z,65.16
2022-08-08T04:14:03.288Z,66.11
2022-08-08T04:16:38.720Z,66.12
2022-08-08T04:19:24.004Z,66.48
2022-08-08T04:21:56.977Z,66.45
2022-08-08T04:24:29.385Z,66.91
2022-08-08T04:27:00.840Z,67.02
2022-08-08T04:29:33.361Z,66.81
2022-08-08T04:32:08.286Z,67.29
2022-08-08T04:34:42.928Z,67.49
2022-08-08T04:37:31.517Z,67.55
2022-08-08T04:40:05.274Z,67.52
2022-08-08T04:42:46.645Z,68.05
2022-08-08T04:45:27.779Z,68.34
2022-08-08T04:48:00.778Z,68.59
2022-08-08T04:50:37.905Z,67.54
2022-08-08T04:53:14.065Z,67.46
2022-08-08T04:55:56.821Z,66.98
2022-08-08T04:58:27.719Z,66.74
2022-08-08T05:00:57.372Z,67.22
2022-08-08T05:04:10.586Z,66.91
2022-08-08T05:06:18.384Z,65.92
2022-08-08T05:08:54.222Z,65.40
2022-08-08T05:11:26.251Z,65.85
2022-08-08T05:14:01.316Z,66.21
2022-08-08T05:16:54.721Z,66.83
2022-08-08T05:20:10.475Z,65.95
2022-08-08T05:22:10.336Z,66.11
2022-08-08T05:24:42.019Z,65.59
2022-08-08T05:27:16.827Z,65.19
2022-08-08T05:29:45.300Z,64.17
2022-08-08T05:32:17.975Z,63.68
2022-08-08T05:34:50.321Z,63.44
2022-08-08T05:37:39.188Z,63.67
2022-08-08T05:40:16.779Z,63.39
2022-08-08T05:42:46.276Z,63.13
2022-08-08T05:45:25.186Z,63.53
2022-08-08T05:48:08.612Z,64.20
2022-08-08T05:50:38.972Z,65.96
2022-08-08T05:53:53.693Z,65.87
2022-08-08T05:56:07.904Z,65.14
2022-08-08T05:58:53.619Z,65.85
2022-08-08T06:01:51.770Z,67.78
2022-08-08T06:04:23.796Z,68.76
2022-08-08T06:06:56.566Z,69.68
2022-08-08T06:09:59.320Z,69.53
2022-08-08T06:12:30.533Z,68.64
2022-08-08T06:15:02.770Z,68.69
2022-08-08T06:17:51.002Z,68.31
2022-08-08T06:20:23.088Z,68.79
2022-08-08T06:22:54.458Z,68.84
2022-08-08T06:25:33.317Z,67.85
2022-08-08T06:28:16.054Z,68.68
2022-08-08T06:30:45.207Z,69.35
2022-08-08T06:33:15.204Z,68.84
2022-08-08T06:36:04.920Z,68.98
2022-08-08T06:38:35.918Z,70.12
2022-08-08T06:41:08.105Z,70.14
2022-08-08T06:43:41.532Z,70.46
2022-08-08T06:46:23.605Z,69.27
2022-08-08T06:48:52.783Z,68.50
2022-08-08T06:51:22.390Z,67.99
2022-08-08T06:53:51.361Z,67.47
2022-08-08T06:56:26.894Z,67.65
2022-08-08T06:58:54.810Z,67.45
2022-08-08T07:01:24.729Z,66.10
2022-08-08T07:04:40.708Z,65.21
2022-08-08T07:07:11.606Z,64.40
2022-08-08T07:09:59.416Z,64.01
2022-08-08T07:12:49.476Z,63.49
2022-08-08T07:16:05.238Z,63.33
2022-08-08T07:18:40.586Z,63.42
2022-08-08T07:21:18.579Z,64.38
2022-08-08T07:24:09.482Z,64.26
2022-08-08T07:26:53.211Z,63.89
2022-08-08T07:29:59.623Z,63.08
2022-08-08T07:32:17.249Z,63.80
2022-08-08T07:35:00.531Z,63.80
2022-08-08T07:37:49.769Z,64.19
2022-08-08T07:40:32.344Z,64.13
2022-08-08T07:43:09.591Z,63.85
2022-08-08T07:46:04.732Z,64.15
2022-08-08T07:48:31.483Z,64.03
2022-08-08T07:51:01.300Z,64.32
2022-08-08T07:54:02.337Z,63.73
2022-08-08T07:56:36.173Z,64.07
2022-08-08T07:59:11.491Z,63.67
2022-08-08T08:02:35.398Z,61.75
2022-08-08T08:04:55.639Z,61.72
2022-08-08T08:07:32.103Z,60.99
2022-08-08T08:10:04.698Z,61.23
2022-08-08T08:12:41.238Z,60.77
2022-08-08T08:15:17.118Z,60.05
2022-08-08T08:17:55.343Z,60.28
2022-08-08T08:20:30.175Z,59.51
2022-08-08T08:22:58.700Z,59.22
2022-08-08T08:25:42.841Z,59.78
2022-08-08T08:28:21.556Z,59.68
2022-08-08T08:30:56.611Z,59.85
2022-08-08T08:33:26.379Z,59.32
2022-08-08T08:36:21.077Z,59.59
2022-08-08T08:38:49.783Z,57.74
2022-08-08T08:41:24.132Z,55.71
2022-08-08T08:44:14.232Z,55.23
2022-08-08T08:46:45.402Z,55.11
2022-08-08T08:49:15.714Z,54.07
2022-08-08T08:51:51.023Z,52.14
2022-08-08T08:54:25.393Z,52.04
2022-08-08T08:56:54.944Z,51.72
2022-08-08T08:59:58.746Z,52.22
2022-08-08T09:02:18.943Z,51.30
2022-08-08T09:04:50.294Z,51.43
2022-08-08T09:07:23.419Z,49.80
2022-08-08T09:09:57.705Z,49.62
2022-08-08T09:12:40.090Z,48.31
2022-08-08T09:15:12.766Z,49.25
2022-08-08T09:17:55.438Z,48.10
2022-08-08T09:22:01.476Z,47.30
2022-08-08T09:23:17.866Z,45.52
2022-08-08T09:26:02.422Z,45.08
2022-08-08T09:28:38.603Z,44.93
2022-08-08T09:31:16.278Z,44.67
2022-08-08T09:34:14.936Z,44.10
2022-08-08T09:36:40.377Z,44.34
2022-08-08T09:39:20.883Z,44.23
2022-08-08T09:42:21.280Z,44.32
2022-08-08T09:45:08.048Z,45.36
2022-08-08T09:48:09.754Z,46.79
2022-08-08T09:50:32.544Z,45.91
2022-08-08T09:53:15.325Z,46.23
2022-08-08T09:56:04.646Z,45.73
2022-08-08T09:58:41.431Z,46.11
2022-08-08T10:01:14.332Z,45.24
2022-08-08T10:03:46.129Z,45.19
2022-08-08T10:06:29.362Z,44.87
2022-08-08T10:08:57.533Z,45.96
2022-08-08T10:12:26.402Z,46.02
2022-08-08T10:14:28.242Z,45.67
2022-08-08T10:16:59.794Z,44.82
2022-08-08T10:19:45.974Z,45.40
2022-08-08T10:22:24.231Z,46.34
2022-08-08T10:24:54.744Z,46.66
2022-08-08T10:27:26.325Z,46.42
2022-08-08T10:29:59.925Z,45.92
2022-08-08T10:32:40.317Z,45.78
2022-08-08T10:35:20.633Z,45.77
2022-08-08T10:38:05.358Z,45.74
2022-08-08T10:40:33.187Z,45.53
2022-08-08T10:43:05.029Z,46.14
2022-08-08T10:45:42.355Z,45.69
2022-08-08T10:48:31.833Z,45.88
2022-08-08T10:51:11.217Z,45.46
2022-08-08T10:53:56.562Z,44.77
2022-08-08T10:56:27.870Z,44.57
2022-08-08T10:59:00.394Z,44.28
2022-08-08T11:01:29.105Z,44.23
2022-08-08T11:04:04.491Z,45.01
2022-08-08T11:06:34.167Z,45.00
2022-08-08T11:09:14.962Z,44.03
2022-08-08T11:12:05.564Z,44.81
2022-08-08T11:14:34.748Z,44.96
2022-08-08T11:17:03.025Z,44.35
2022-08-08T11:19:33.699Z,42.75
2022-08-08T11:22:04.101Z,44.05
2022-08-08T11:24:33.524Z,43.35
2022-08-08T11:27:19.118Z,42.62
2022-08-08T11:30:18.601Z,43.51
2022-08-08T11:32:38.071Z,43.63
2022-08-08T11:35:23.501Z,43.62
2022-08-08T11:38:35.148Z,44.26
2022-08-08T11:40:51.256Z,43.64
2022-08-08T11:43:21.559Z,44.93
2022-08-08T11:46:10.006Z,45.11
2022-08-08T11:48:38.711Z,44.14
2022-08-08T11:51:30.445Z,44.25
2022-08-08T11:53:58.888Z,44.38
2022-08-08T11:56:32.545Z,44.50
2022-08-08T11:59:11.794Z,44.39
2022-08-08T12:01:39.179Z,43.95
2022-08-08T12:04:08.068Z,44.08
2022-08-08T12:06:35.582Z,43.69
2022-08-08T12:09:09.649Z,44.53
2022-08-08T12:11:46.013Z,45.32
2022-08-08T12:14:24.040Z,44.99
2022-08-08T12:16:57.227Z,44.57
2022-08-08T12:19:37.766Z,44.85
2022-08-08T12:22:20.608Z,45.40
2022-08-08T12:24:53.832Z,44.93
2022-08-08T12:27:26.709Z,44.73
2022-08-08T12:29:56.167Z,44.46
2022-08-08T12:32:23.469Z,45.54
2022-08-08T12:35:13.387Z,45.43
2022-08-08T12:38:00.937Z,46.22
2022-08-08T12:40:54.823Z,46.29
2022-08-08T12:43:31.984Z,46.12
2022-08-08T12:46:02.991Z,47.07
2022-08-08T12:48:36.428Z,46.48
2022-08-08T12:51:10.884Z,47.46
2022-08-08T12:53:44.823Z,47.30
2022-08-08T12:56:18.807Z,46.80
2022-08-08T12:58:54.317Z,47.54
2022-08-08T13:01:42.892Z,47.70
2022-08-08T13:04:19.135Z,47.40
2022-08-08T13:06:58.621Z,47.68
2022-08-08T13:09:33.209Z,47.52
2022-08-08T13:12:24.728Z,47.53
2022-08-08T13:14:52.907Z,47.64
2022-08-08T13:18:08.672Z,47.28
2022-08-08T13:20:18.208Z,46.79
2022-08-08T13:22:46.357Z,47.02
2022-08-08T13:25:16.097Z,46.28
2022-08-08T13:27:44.457Z,46.70
2022-08-08T13:30:21.229Z,46.63
2022-08-08T13:32:57.593Z,45.51
2022-08-08T13:35:29.574Z,46.23
2022-08-08T13:38:08.139Z,46.32
2022-08-08T13:40:41.361Z,45.55
2022-08-08T13:43:09.031Z,44.91
2022-08-08T13:45:37.620Z,45.45
2022-08-08T13:48:11.523Z,45.72
2022-08-08T13:50:50.809Z,45.46
2022-08-08T13:53:34.083Z,46.02
2022-08-08T13:56:10.982Z,46.02
2022-08-08T13:58:58.382Z,45.77
2022-08-08T14:01:32.894Z,45.38
2022-08-08T14:04:21.550Z,45.86
2022-08-08T14:06:49.044Z,45.51
2022-08-08T14:09:24.402Z,44.91
2022-08-08T14:11:58.242Z,44.17
2022-08-08T14:14:39.578Z,44.70
2022-08-08T14:17:07.582Z,45.01
2022-08-08T14:19:58.117Z,44.57
2022-08-08T14:22:36.498Z,43.98
2022-08-08T14:25:07.697Z,44.54
2022-08-08T14:27:40.592Z,45.18
2022-08-08T14:30:18.021Z,45.01
2022-08-08T14:32:47.450Z,44.98
2022-08-08T14:35:35.411Z,45.31
2022-08-08T14:38:34.722Z,44.20
2022-08-08T14:40:59.355Z,44.07
2022-08-08T14:44:02.188Z,44.48
2022-08-08T14:46:16.693Z,44.00
2022-08-08T14:48:57.074Z,45.41
2022-08-08T14:51:46.998Z,45.01
2022-08-08T14:54:16.191Z,44.50
2022-08-08T14:56:57.173Z,44.90
2022-08-08T14:59:44.359Z,45.34
2022-08-08T15:02:13.976Z,44.59
2022-08-08T15:04:43.429Z,44.41
2022-08-08T15:07:24.494Z,44.36
2022-08-08T15:10:01.057Z,43.37
2022-08-08T15:12:28.889Z,43.69
2022-08-08T15:14:56.702Z,44.12
2022-08-08T15:17:23.993Z,44.52
2022-08-08T15:19:51.714Z,44.59
2022-08-08T15:22:23.757Z,43.91
2022-08-08T15:24:51.501Z,44.04
2022-08-08T15:27:58.286Z,44.30
2022-08-08T15:30:12.299Z,44.75
2022-08-08T15:32:40.598Z,44.64
2022-08-08T15:35:10.943Z,43.20
2022-08-08T15:37:38.521Z,42.83
2022-08-08T15:40:11.130Z,43.54
2022-08-08T15:42:39.596Z,43.40
2022-08-08T15:45:07.170Z,43.89
2022-08-08T15:47:34.437Z,43.68
2022-08-08T15:50:02.610Z,42.78
2022-08-08T15:52:31.288Z,43.26
2022-08-08T15:55:00.474Z,43.52
2022-08-08T15:57:35.197Z,43.32
2022-08-08T16:00:05.913Z,43.21
2022-08-08T16:02:53.123Z,43.43
2022-08-08T16:05:23.539Z,43.10
2022-08-08T16:07:53.824Z,43.41
2022-08-08T16:13:10.233Z,44.02
2022-08-08T16:13:29.954Z,44.10
2022-08-08T16:16:09.282Z,44.09
2022-08-08T16:18:44.673Z,44.52
2022-08-08T16:21:27.080Z,44.61
2022-08-08T16:23:56.303Z,44.60
2022-08-08T16:26:34.720Z,44.50
2022-08-08T16:29:15.616Z,44.37
2022-08-08T16:31:49.094Z,44.44
2022-08-08T16:34:18.805Z,44.10
2022-08-08T16:36:49.321Z,44.71
2022-08-08T16:39:48.944Z,44.88
2022-08-08T16:42:06.044Z,44.45
2022-08-08T16:44:34.308Z,44.74
2022-08-08T16:47:16.851Z,45.44
2022-08-08T16:49:44.573Z,45.29
2022-08-08T16:55:00.526Z,45.48
2022-08-08T16:55:34.366Z,45.32
2022-08-08T16:58:16.349Z,44.94
2022-08-08T17:00:42.782Z,45.18
2022-08-08T17:03:24.447Z,45.56
2022-08-08T17:05:53.764Z,45.67
2022-08-08T17:08:23.592Z,45.63
2022-08-08T17:10:58.075Z,45.33
2022-08-08T17:13:27.529Z,45.55
2022-08-08T17:16:15.452Z,45.32
2022-08-08T17:18:43.564Z,45.40
2022-08-08T17:21:13.753Z,45.75
2022-08-08T17:24:00.066Z,45.79
2022-08-08T17:26:29.276Z,46.25
2022-08-08T17:28:57.326Z,46.66
2022-08-08T17:31:44.141Z,46.80
2022-08-08T17:34:52.897Z,46.40
2022-08-08T17:37:09.079Z,46.23
2022-08-08T17:40:05.029Z,46.91
2022-08-08T17:42:24.542Z,46.45
2022-08-08T17:44:52.676Z,46.70
2022-08-08T17:47:27.377Z,46.76
2022-08-08T17:50:01.459Z,46.48
2022-08-08T17:52:34.077Z,46.66
2022-08-08T17:55:05.447Z,46.87
2022-08-08T17:57:50.842Z,47.48
2022-08-08T18:00:25.908Z,47.57
2022-08-08T18:03:08.316Z,47.93
2022-08-08T18:05:48.470Z,48.03
2022-08-08T18:08:24.625Z,48.81
2022-08-08T18:11:06.297Z,48.72
2022-08-08T18:13:35.034Z,48.77
2022-08-08T18:16:09.685Z,49.25
2022-08-08T18:18:42.443Z,49.42
2022-08-08T18:21:35.276Z,48.82
2022-08-08T18:23:59.865Z,48.88
2022-08-08T18:26:28.180Z,49.65
2022-08-08T18:28:56.535Z,50.41
2022-08-08T18:31:27.780Z,49.87
2022-08-08T18:34:25.769Z,49.94
2022-08-08T18:36:44.552Z,50.61
2022-08-08T18:39:16.518Z,50.64
2022-08-08T18:41:58.097Z,50.88
2022-08-08T18:44:27.674Z,51.22
2022-08-08T18:46:57.941Z,51.33
2022-08-08T18:49:32.575Z,51.32
2022-08-08T18:52:18.631Z,52.54
2022-08-08T18:55:00.652Z,52.28
2022-08-08T18:57:41.939Z,52.16
2022-08-08T19:00:16.575Z,52.36
2022-08-08T19:02:55.446Z,52.16
2022-08-08T19:05:32.486Z,52.25
2022-08-08T19:08:09.241Z,52.31
2022-08-08T19:10:37.732Z,51.79
2022-08-08T19:13:20.781Z,51.84
2022-08-08T19:15:51.891Z,51.49
2022-08-08T19:18:33.248Z,51.48
2022-08-08T19:21:29.272Z,51.50
2022-08-08T19:23:57.574Z,51.47
2022-08-08T19:26:29.702Z,51.82
2022-08-08T19:28:59.328Z,51.97
2022-08-08T19:31:31.070Z,51.50
2022-08-08T19:34:30.464Z,51.85
2022-08-08T19:36:46.569Z,51.87
2022-08-08T19:39:15.466Z,52.49
2022-08-08T19:41:42.720Z,52.50
2022-08-08T19:44:12.826Z,52.55
2022-08-08T19:46:40.747Z,52.36
2022-08-08T19:49:09.643Z,52.37
2022-08-08T19:51:41.483Z,52.06
2022-08-08T19:54:11.387Z,51.63
2022-08-08T19:56:41.457Z,52.01
2022-08-08T19:59:15.892Z,51.81
2022-08-08T20:02:01.087Z,51.91
2022-08-08T20:04:31.180Z,52.17
2022-08-08T20:07:03.487Z,52.86
2022-08-08T20:09:32.683Z,53.06
2022-08-08T20:12:11.749Z,53.30
2022-08-08T20:14:51.749Z,53.67
2022-08-08T20:17:27.748Z,53.52
2022-08-08T20:20:08.487Z,53.51
2022-08-08T20:22:38.710Z,53.41
2022-08-08T20:25:14.103Z,52.73
2022-08-08T20:27:43.817Z,52.87
2022-08-08T20:30:53.146Z,52.36
2022-08-08T20:33:04.913Z,51.83
2022-08-08T20:35:56.920Z,51.95
2022-08-08T20:38:32.538Z,52.67
2022-08-08T20:41:05.384Z,52.74
2022-08-08T20:43:43.055Z,53.10
2022-08-08T20:46:11.607Z,53.28
2022-08-08T20:48:38.972Z,53.33
2022-08-08T20:51:08.286Z,53.30
2022-08-08T20:53:59.204Z,53.38
2022-08-08T20:56:35.339Z,53.97
2022-08-08T20:59:05.968Z,55.04
2022-08-08T21:02:05.436Z,56.18
2022-08-08T21:04:21.152Z,57.77
2022-08-08T21:06:52.748Z,58.49
2022-08-08T21:09:21.833Z,58.56
2022-08-08T21:11:50.634Z,59.00
2022-08-08T21:14:30.249Z,59.00
2022-08-08T21:17:01.496Z,59.42
2022-08-08T21:19:44.314Z,59.53
2022-08-08T21:22:14.306Z,58.36
2022-08-08T21:24:42.063Z,57.49
2022-08-08T21:28:05.887Z,57.02
2022-08-08T21:30:12.363Z,56.78
2022-08-08T21:32:52.298Z,56.28
2022-08-08T21:36:18.000Z,52.58
2022-08-08T21:38:17.064Z,50.94
2022-08-08T21:40:56.474Z,50.76
2022-08-08T21:43:25.283Z,50.29
2022-08-08T21:48:06.011Z,50.13
2022-08-08T21:48:41.639Z,50.50
2022-08-08T21:51:13.305Z,49.41
2022-08-08T21:54:32.491Z,49.27
2022-08-08T21:56:38.173Z,48.90
2022-08-08T21:59:10.749Z,48.78
2022-08-08T22:01:42.831Z,49.02
2022-08-08T22:04:11.432Z,48.65
2022-08-08T22:06:40.400Z,48.82
2022-08-08T22:09:09.427Z,48.54
2022-08-08T22:12:02.873Z,48.75
2022-08-08T22:14:26.552Z,48.64
2022-08-08T22:16:56.285Z,48.89
2022-08-08T22:19:24.257Z,48.82
2022-08-08T22:21:53.082Z,49.02
2022-08-08T22:24:28.062Z,48.90
2022-08-08T22:27:01.616Z,49.09
2022-08-08T22:30:01.358Z,49.17
2022-08-08T22:32:18.896Z,49.24
2022-08-08T22:34:51.074Z,48.33
2022-08-08T22:37:27.586Z,46.48
2022-08-08T22:40:07.652Z,46.89
2022-08-08T22:42:47.115Z,46.78
2022-08-08T22:45:15.606Z,46.94
2022-08-08T22:47:48.650Z,47.15
2022-08-08T22:50:26.178Z,47.54
2022-08-08T22:54:27.802Z,47.35
2022-08-08T22:55:58.481Z,47.81
2022-08-08T22:58:31.017Z,47.80
2022-08-08T23:00:59.765Z,47.88
2022-08-08T23:03:53.809Z,47.95
2022-08-08T23:06:16.581Z,47.86
2022-08-08T23:08:54.569Z,47.28
2022-08-08T23:11:58.064Z,47.79
2022-08-08T23:14:11.940Z,47.59
2022-08-08T23:16:43.569Z,47.31
2022-08-08T23:19:11.884Z,47.17
2022-08-08T23:21:39.215Z,47.72
2022-08-08T23:24:07.017Z,47.22
2022-08-08T23:26:34.488Z,47.47
2022-08-08T23:29:02.059Z,47.15
2022-08-08T23:31:29.233Z,46.86
2022-08-08T23:34:17.164Z,46.81
2022-08-08T23:36:46.868Z,46.89
2022-08-08T23:39:14.690Z,46.36
2022-08-08T23:41:46.877Z,45.85
2022-08-08T23:44:18.762Z,45.31
2022-08-08T23:49:07.325Z,45.76
2022-08-08T23:49:34.331Z,44.90
2022-08-08T23:52:05.473Z,45.13
2022-08-08T23:54:41.402Z,44.79
2022-08-08T23:57:26.678Z,44.68
